Time;durP1;ratioP1;P1;durP2;ratioP2;P2;SDS_P1;SDS_P2;PMS_P1;PMS_P2;Temp;Humidity;BMP_temperature;BMP_pressure;BME280_temperature;BME280_humidity;BME280_pressure;Samples;Min_cycle;Max_cycle;Signal;HPM_P1;HPM_P2
2023/09/09 00:01:50;;;;;;;;;;;18.70;99.90;;;;;;7318378;19;9277;-69
2023/09/09 00:04:19;;;;;;;;;;;18.50;99.90;;;;;;7315367;19;10917;-70
2023/09/09 00:06:48;;;;;;;;;;;18.50;99.90;;;;;;7316079;19;9566;-69
2023/09/09 00:09:17;;;;;;;;;;;18.50;99.90;;;;;;7318428;19;11545;-69
2023/09/09 00:11:46;;;;;;;;;;;18.50;99.90;;;;;;7317157;19;9615;-69
2023/09/09 00:14:15;;;;;;;;;;;18.50;99.90;;;;;;7315133;19;9566;-69
2023/09/09 00:16:47;;;;;;;;;;;18.50;99.90;;;;;;7316122;19;9246;-69
2023/09/09 00:19:16;;;;;;;;;;;18.50;99.90;;;;;;7317848;19;9545;-69
2023/09/09 00:21:46;;;;;;;;;;;18.50;99.90;;;;;;7316539;19;9462;-69
2023/09/09 00:24:35;;;;;;;;;;;18.50;99.90;;;;;;7311565;19;9229;-70
2023/09/09 00:27:04;;;;;;;;;;;18.40;99.90;;;;;;7314336;19;9596;-69
2023/09/09 00:29:34;;;;;;;;;;;18.40;99.90;;;;;;7312074;19;9307;-69
2023/09/09 00:32:06;;;;;;;;;;;18.40;99.90;;;;;;7317706;19;9172;-71
2023/09/09 00:34:36;;;;;;;;;;;18.30;99.90;;;;;;7314237;19;9118;-69
2023/09/09 00:37:06;;;;;;;;;;;18.30;99.90;;;;;;7317772;19;9224;-69
2023/09/09 00:39:35;;;;;;;;;;;18.20;99.90;;;;;;7314845;19;11631;-69
2023/09/09 00:42:04;;;;;;;;;;;18.20;99.90;;;;;;7316881;19;9385;-69
2023/09/09 00:44:53;;;;;;;;;;;18.20;99.90;;;;;;7313080;19;9497;-69
2023/09/09 00:47:28;;;;;;;;;;;18.20;99.90;;;;;;7315342;19;11679;-69
2023/09/09 00:49:57;;;;;;;;;;;18.20;99.90;;;;;;7313708;19;9343;-70
2023/09/09 00:52:26;;;;;;;;;;;18.20;99.90;;;;;;7316942;19;9551;-69
2023/09/09 00:54:55;;;;;;;;;;;18.20;99.90;;;;;;7314356;19;9384;-70
2023/09/09 00:57:24;;;;;;;;;;;18.20;99.90;;;;;;7316232;19;10137;-69
2023/09/09 00:59:53;;;;;;;;;;;18.10;99.90;;;;;;7314600;19;9474;-70
2023/09/09 01:02:25;;;;;;;;;;;18.10;99.90;;;;;;7315398;19;10683;-69
2023/09/09 01:04:54;;;;;;;;;;;18.10;99.90;;;;;;7314459;19;9560;-69
2023/09/09 01:07:48;;;;;;;;;;;18.20;99.90;;;;;;7312659;19;9231;-69
2023/09/09 01:10:20;;;;;;;;;;;18.20;99.90;;;;;;7315991;19;9445;-69
2023/09/09 01:12:50;;;;;;;;;;;18.10;99.90;;;;;;7312407;19;9253;-69
2023/09/09 01:15:19;;;;;;;;;;;18.20;99.90;;;;;;7315386;19;9574;-70
2023/09/09 01:17:52;;;;;;;;;;;18.30;99.90;;;;;;7314411;19;11709;-69
2023/09/09 01:20:28;;;;;;;;;;;18.30;99.90;;;;;;7314884;19;9274;-69
2023/09/09 01:23:00;;;;;;;;;;;18.30;99.90;;;;;;7313879;19;9336;-69
2023/09/09 01:25:49;;;;;;;;;;;18.30;99.90;;;;;;7308333;19;9542;-69
2023/09/09 01:28:21;;;;;;;;;;;18.30;99.90;;;;;;7313436;19;9512;-69
2023/09/09 01:30:52;;;;;;;;;;;18.20;99.90;;;;;;7315970;19;9357;-69
2023/09/09 01:33:21;;;;;;;;;;;18.20;99.90;;;;;;7314063;19;9557;-69
2023/09/09 01:35:50;;;;;;;;;;;18.20;99.90;;;;;;7314268;19;9428;-69
2023/09/09 01:38:23;;;;;;;;;;;18.20;99.90;;;;;;7314322;19;9132;-69
2023/09/09 01:40:52;;;;;;;;;;;18.20;99.90;;;;;;7312575;19;9446;-69
2023/09/09 01:43:21;;;;;;;;;;;18.30;99.90;;;;;;7310787;19;11531;-69
2023/09/09 01:45:51;;;;;;;;;;;18.40;99.90;;;;;;7313715;19;9451;-69
2023/09/09 01:48:20;;;;;;;;;;;18.30;99.90;;;;;;7311136;19;9186;-69
2023/09/09 01:51:09;;;;;;;;;;;18.10;99.90;;;;;;7310617;19;9536;-69
2023/09/09 01:53:41;;;;;;;;;;;18.00;99.90;;;;;;7314822;19;9356;-69
2023/09/09 01:56:10;;;;;;;;;;;18.00;99.90;;;;;;7313267;19;10709;-69
2023/09/09 01:58:39;;;;;;;;;;;18.00;99.90;;;;;;7313066;19;9322;-69
2023/09/09 02:01:28;;;;;;;;;;;17.90;99.90;;;;;;7315682;19;9531;-69
2023/09/09 02:03:57;;;;;;;;;;;17.90;99.90;;;;;;7320910;19;9262;-69
2023/09/09 02:06:26;;;;;;;;;;;17.90;99.90;;;;;;7317660;19;9305;-69
2023/09/09 02:08:57;;;;;;;;;;;17.80;99.90;;;;;;7321373;19;9466;-69
2023/09/09 02:11:26;;;;;;;;;;;17.80;99.90;;;;;;7318279;19;9364;-69
2023/09/09 02:13:55;;;;;;;;;;;17.80;99.90;;;;;;7319906;19;9340;-69
2023/09/09 02:16:24;;;;;;;;;;;17.80;99.90;;;;;;7318206;19;9309;-70
2023/09/09 02:18:53;;;;;;;;;;;17.80;99.90;;;;;;7320399;19;9364;-69
2023/09/09 02:21:22;;;;;;;;;;;17.70;99.90;;;;;;7319510;19;9298;-69
2023/09/09 02:23:51;;;;;;;;;;;17.80;99.90;;;;;;7318018;19;9311;-69
2023/09/09 02:26:23;;;;;;;;;;;17.80;99.90;;;;;;7320115;19;9138;-69
2023/09/09 02:28:53;;;;;;;;;;;17.90;99.90;;;;;;7318934;19;9287;-70
2023/09/09 02:31:23;;;;;;;;;;;17.90;99.90;;;;;;7319193;19;9301;-69
2023/09/09 02:33:52;;;;;;;;;;;17.80;99.90;;;;;;7317440;19;9357;-70
2023/09/09 02:36:21;;;;;;;;;;;17.80;99.90;;;;;;7319657;19;10474;-69
2023/09/09 02:38:49;;;;;;;;;;;17.80;99.90;;;;;;7317571;19;9335;-69
2023/09/09 02:41:18;;;;;;;;;;;17.80;99.90;;;;;;7320427;19;9331;-69
2023/09/09 02:43:50;;;;;;;;;;;17.90;99.90;;;;;;7315841;19;9097;-69
2023/09/09 02:46:19;;;;;;;;;;;18.00;99.90;;;;;;7320133;19;9245;-69
2023/09/09 02:49:08;;;;;;;;;;;18.00;99.90;;;;;;7317699;19;9783;-69
2023/09/09 02:51:57;;;;;;;;;;;18.00;99.90;;;;;;7315834;19;9043;-69
2023/09/09 02:54:26;;;;;;;;;;;18.10;99.90;;;;;;7320023;19;11088;-69
2023/09/09 02:56:55;;;;;;;;;;;18.00;99.90;;;;;;7317032;19;10770;-69
2023/09/09 02:59:27;;;;;;;;;;;18.10;99.90;;;;;;7318984;19;9173;-69
2023/09/09 03:02:16;;;;;;;;;;;17.90;99.90;;;;;;7318009;19;9214;-69
2023/09/09 03:04:45;;;;;;;;;;;17.90;99.90;;;;;;7318097;19;9623;-69
2023/09/09 03:07:14;;;;;;;;;;;17.90;99.90;;;;;;7318705;19;9118;-69
2023/09/09 03:10:02;;;;;;;;;;;17.90;99.90;;;;;;7315305;19;9278;-69
2023/09/09 03:12:51;;;;;;;;;;;17.90;99.90;;;;;;7313002;19;9546;-69
2023/09/09 03:15:23;;;;;;;;;;;17.80;99.90;;;;;;7317952;19;9403;-69
2023/09/09 03:17:52;;;;;;;;;;;17.80;99.90;;;;;;7317447;19;9271;-69
2023/09/09 03:20:21;;;;;;;;;;;17.70;99.90;;;;;;7317408;19;9261;-69
2023/09/09 03:22:50;;;;;;;;;;;17.60;99.90;;;;;;7318418;19;9222;-69
2023/09/09 03:25:19;;;;;;;;;;;17.60;99.90;;;;;;7317068;19;10247;-69
2023/09/09 03:27:48;;;;;;;;;;;17.60;99.90;;;;;;7318543;19;9136;-69
2023/09/09 03:30:17;;;;;;;;;;;17.50;99.90;;;;;;7319035;19;9289;-69
2023/09/09 03:32:50;;;;;;;;;;;17.50;99.90;;;;;;7317168;19;9332;-69
2023/09/09 03:35:19;;;;;;;;;;;17.50;99.90;;;;;;7316801;19;9766;-69
2023/09/09 03:37:48;;;;;;;;;;;17.50;99.90;;;;;;7320237;19;9537;-69
2023/09/09 03:40:17;;;;;;;;;;;17.50;99.90;;;;;;7315179;19;9289;-69
2023/09/09 03:42:46;;;;;;;;;;;17.50;99.90;;;;;;7315653;19;9308;-69
2023/09/09 03:45:16;;;;;;;;;;;17.50;99.90;;;;;;7315429;19;9299;-69
2023/09/09 03:47:45;;;;;;;;;;;17.50;99.90;;;;;;7317932;19;9261;-69
2023/09/09 03:50:17;;;;;;;;;;;17.30;99.90;;;;;;7316062;19;9270;-69
2023/09/09 03:52:45;;;;;;;;;;;17.30;99.90;;;;;;7316953;19;9298;-69
2023/09/09 03:55:36;;;;;;;;;;;17.30;99.90;;;;;;7315065;19;9537;-69
2023/09/09 03:58:05;;;;;;;;;;;17.30;99.90;;;;;;7317434;19;9513;-69
2023/09/09 04:01:07;;;;;;;;;;;17.30;99.90;;;;;;7315096;19;9254;-69
2023/09/09 04:03:38;;;;;;;;;;;17.30;99.90;;;;;;7316449;19;9324;-69
2023/09/09 04:06:11;;;;;;;;;;;17.30;99.90;;;;;;7317088;19;9324;-69
2023/09/09 04:08:41;;;;;;;;;;;17.40;99.90;;;;;;7318460;19;9246;-69
2023/09/09 04:11:10;;;;;;;;;;;17.30;99.90;;;;;;7316726;19;9369;-69
2023/09/09 04:13:40;;;;;;;;;;;17.30;99.90;;;;;;7315195;19;9206;-69
2023/09/09 04:16:10;;;;;;;;;;;17.20;99.90;;;;;;7316316;19;10878;-69
2023/09/09 04:18:39;;;;;;;;;;;17.20;99.90;;;;;;7313966;19;10196;-69
2023/09/09 04:21:11;;;;;;;;;;;17.10;99.90;;;;;;7317003;19;9302;-69
2023/09/09 04:23:40;;;;;;;;;;;17.10;99.90;;;;;;7311758;19;9599;-69
2023/09/09 04:26:09;;;;;;;;;;;17.10;99.90;;;;;;7316439;19;10452;-69
2023/09/09 04:28:39;;;;;;;;;;;17.10;99.90;;;;;;7313133;19;9305;-69
2023/09/09 04:31:09;;;;;;;;;;;17.30;99.90;;;;;;7317965;19;9469;-69
2023/09/09 04:33:58;;;;;;;;;;;17.30;99.90;;;;;;7314343;19;9645;-69
2023/09/09 04:36:50;;;;;;;;;;;17.20;99.90;;;;;;7312093;19;9474;-69
2023/09/09 04:39:40;;;;;;;;;;;17.20;99.90;;;;;;7314105;19;10301;-69
2023/09/09 04:42:09;;;;;;;;;;;17.20;99.90;;;;;;7316133;19;9234;-69
2023/09/09 04:44:38;;;;;;;;;;;17.20;99.90;;;;;;7311621;19;9253;-69
2023/09/09 04:47:07;;;;;;;;;;;17.20;99.90;;;;;;7314043;19;9338;-69
2023/09/09 04:49:36;;;;;;;;;;;17.20;99.90;;;;;;7313997;19;9252;-70
2023/09/09 04:52:08;;;;;;;;;;;17.10;99.90;;;;;;7315846;19;11110;-69
2023/09/09 04:54:37;;;;;;;;;;;17.10;99.90;;;;;;7314776;19;9608;-70
2023/09/09 04:57:07;;;;;;;;;;;17.10;99.90;;;;;;7314880;19;9723;-69
2023/09/09 04:59:38;;;;;;;;;;;17.10;99.90;;;;;;7315715;19;9309;-69
2023/09/09 05:02:27;;;;;;;;;;;17.10;99.90;;;;;;7313794;19;9548;-69
2023/09/09 05:04:55;;;;;;;;;;;17.10;99.90;;;;;;7312673;19;10358;-69
2023/09/09 05:07:29;;;;;;;;;;;17.00;99.90;;;;;;7316091;19;9288;-69
2023/09/09 05:09:58;;;;;;;;;;;17.10;99.90;;;;;;7314367;19;9769;-69
2023/09/09 05:12:27;;;;;;;;;;;17.00;99.90;;;;;;7316400;19;9273;-69
2023/09/09 05:15:16;;;;;;;;;;;17.00;99.90;;;;;;7314191;19;10169;-69
2023/09/09 05:17:46;;;;;;;;;;;16.90;99.90;;;;;;7315126;19;9376;-69
2023/09/09 05:20:16;;;;;;;;;;;16.90;99.90;;;;;;7314087;19;9448;-69
2023/09/09 05:23:08;;;;;;;;;;;16.90;99.90;;;;;;7311589;19;9259;-69
2023/09/09 05:25:37;;;;;;;;;;;16.90;99.90;;;;;;7315875;19;10164;-69
2023/09/09 05:28:06;;;;;;;;;;;17.00;99.90;;;;;;7314411;19;9561;-66
2023/09/09 05:30:55;;;;;;;;;;;17.00;99.90;;;;;;7314474;19;12086;-69
2023/09/09 05:33:24;;;;;;;;;;;17.00;99.90;;;;;;7314171;19;9317;-70
2023/09/09 05:35:54;;;;;;;;;;;17.10;99.90;;;;;;7315763;19;9364;-70
2023/09/09 05:38:26;;;;;;;;;;;17.10;99.90;;;;;;7314236;19;9537;-69
2023/09/09 05:40:56;;;;;;;;;;;17.20;99.90;;;;;;7315381;19;9632;-69
2023/09/09 05:43:25;;;;;;;;;;;17.20;99.90;;;;;;7310949;19;9240;-69
2023/09/09 05:45:54;;;;;;;;;;;17.20;99.90;;;;;;7315012;19;9261;-69
2023/09/09 05:48:23;;;;;;;;;;;17.30;99.90;;;;;;7311704;19;9407;-69
2023/09/09 05:50:55;;;;;;;;;;;17.30;99.90;;;;;;7312590;19;10577;-69
2023/09/09 05:53:26;;;;;;;;;;;17.30;99.90;;;;;;7311562;19;9525;-69
2023/09/09 05:55:55;;;;;;;;;;;17.40;99.90;;;;;;7314109;19;9299;-69
2023/09/09 05:58:24;;;;;;;;;;;17.40;99.90;;;;;;7312415;19;9058;-70
2023/09/09 06:00:53;;;;;;;;;;;17.40;99.90;;;;;;7313756;19;10420;-69
2023/09/09 06:03:22;;;;;;;;;;;17.50;99.90;;;;;;7312650;19;9269;-69
2023/09/09 06:05:51;;;;;;;;;;;17.50;99.90;;;;;;7314304;19;9293;-69
2023/09/09 06:08:20;;;;;;;;;;;17.50;99.90;;;;;;7314006;19;9290;-69
2023/09/09 06:10:52;;;;;;;;;;;17.60;99.90;;;;;;7313450;19;9220;-70
2023/09/09 06:13:21;;;;;;;;;;;17.70;99.90;;;;;;7312418;19;9380;-69
2023/09/09 06:16:13;;;;;;;;;;;17.80;99.90;;;;;;7311292;19;9420;-69
2023/09/09 06:18:42;;;;;;;;;;;17.80;99.90;;;;;;7312024;19;9179;-69
2023/09/09 06:21:31;;;;;;;;;;;17.90;99.90;;;;;;7310113;19;9178;-70
2023/09/09 06:24:00;;;;;;;;;;;18.00;99.90;;;;;;7312399;19;9447;-70
2023/09/09 06:26:33;;;;;;;;;;;18.00;99.90;;;;;;7311276;19;9548;-69
2023/09/09 06:29:03;;;;;;;;;;;18.10;99.90;;;;;;7312158;19;9501;-69
2023/09/09 06:31:32;;;;;;;;;;;18.20;99.90;;;;;;7312206;19;9222;-69
2023/09/09 06:34:01;;;;;;;;;;;18.30;99.90;;;;;;7312377;19;9292;-69
2023/09/09 06:36:30;;;;;;;;;;;18.30;99.90;;;;;;7311554;19;8948;-69
2023/09/09 06:38:59;;;;;;;;;;;18.30;99.90;;;;;;7313970;19;9237;-69
2023/09/09 06:41:52;;;;;;;;;;;18.50;99.90;;;;;;7307778;19;9297;-69
2023/09/09 06:44:21;;;;;;;;;;;18.60;99.90;;;;;;7312380;19;9250;-69
2023/09/09 06:46:50;;;;;;;;;;;18.60;99.90;;;;;;7313625;19;9241;-69
2023/09/09 06:49:19;;;;;;;;;;;18.70;99.90;;;;;;7319612;19;9218;-69
2023/09/09 06:51:48;;;;;;;;;;;18.80;99.90;;;;;;7316161;19;9541;-69
2023/09/09 06:54:17;;;;;;;;;;;18.90;99.90;;;;;;7319258;19;9441;-69
2023/09/09 06:56:47;;;;;;;;;;;19.00;99.90;;;;;;7316806;19;9258;-69
2023/09/09 06:59:19;;;;;;;;;;;19.10;99.90;;;;;;7319254;19;9411;-70
2023/09/09 07:01:47;;;;;;;;;;;19.20;99.90;;;;;;7316193;19;9250;-69
2023/09/09 07:04:20;;;;;;;;;;;19.30;99.90;;;;;;7318039;19;9491;-70
2023/09/09 07:07:09;;;;;;;;;;;19.40;99.90;;;;;;7316134;19;9348;-69
2023/09/09 07:09:37;;;;;;;;;;;19.50;99.90;;;;;;7318941;19;9388;-69
2023/09/09 07:12:27;;;;;;;;;;;19.70;99.90;;;;;;7317221;19;12210;-69
2023/09/09 07:14:58;;;;;;;;;;;19.90;99.90;;;;;;7315897;19;9510;-70
2023/09/09 07:17:27;;;;;;;;;;;20.20;99.90;;;;;;7318312;19;9234;-69
2023/09/09 07:19:56;;;;;;;;;;;20.60;99.90;;;;;;7316721;19;9573;-69
2023/09/09 07:22:25;;;;;;;;;;;21.00;99.90;;;;;;7317456;19;9258;-69
2023/09/09 07:24:54;;;;;;;;;;;21.40;99.90;;;;;;7317283;19;9493;-69
2023/09/09 07:27:23;;;;;;;;;;;21.70;99.90;;;;;;7317798;19;9483;-69
2023/09/09 07:29:52;;;;;;;;;;;21.90;99.90;;;;;;7319728;19;9299;-70
2023/09/09 07:32:24;;;;;;;;;;;22.00;99.90;;;;;;7315385;19;11064;-70
2023/09/09 07:35:13;;;;;;;;;;;22.30;99.90;;;;;;7313636;19;9402;-69
2023/09/09 07:37:43;;;;;;;;;;;22.40;99.90;;;;;;7319434;19;9542;-70
2023/09/09 07:40:13;;;;;;;;;;;22.60;99.90;;;;;;7314986;19;9308;-70
2023/09/09 07:42:42;;;;;;;;;;;22.70;99.90;;;;;;7318056;19;9280;-70
2023/09/09 07:45:12;;;;;;;;;;;22.70;99.90;;;;;;7315762;19;9509;-69
2023/09/09 07:47:44;;;;;;;;;;;22.80;99.90;;;;;;7317997;19;8944;-70
2023/09/09 07:50:13;;;;;;;;;;;23.00;99.90;;;;;;7315428;19;9381;-69
2023/09/09 07:52:42;;;;;;;;;;;23.10;99.90;;;;;;7316952;19;9201;-70
2023/09/09 07:55:11;;;;;;;;;;;23.30;99.90;;;;;;7315453;19;9258;-70
2023/09/09 07:57:40;;;;;;;;;;;23.60;99.90;;;;;;7314557;19;9419;-70
2023/09/09 08:00:10;;;;;;;;;;;23.70;99.90;;;;;;7316770;19;9541;-70
2023/09/09 08:02:39;;;;;;;;;;;23.80;99.90;;;;;;7316099;19;10426;-70
2023/09/09 08:05:11;;;;;;;;;;;23.90;99.90;;;;;;7317194;19;9273;-70
2023/09/09 08:07:43;;;;;;;;;;;23.90;99.90;;;;;;7317477;19;9553;-69
2023/09/09 08:10:12;;;;;;;;;;;24.20;99.90;;;;;;7318069;19;9225;-70
2023/09/09 08:12:41;;;;;;;;;;;24.20;99.90;;;;;;7314654;19;9280;-70
2023/09/09 08:15:30;;;;;;;;;;;24.10;99.90;;;;;;7313104;19;9321;-69
2023/09/09 08:17:59;;;;;;;;;;;24.10;99.90;;;;;;7316166;19;9271;-70
2023/09/09 08:20:54;;;;;;;;;;;24.10;99.90;;;;;;7313892;19;12500;-70
2023/09/09 08:23:24;;;;;;;;;;;24.00;99.90;;;;;;7314349;19;9178;-70
2023/09/09 08:25:53;;;;;;;;;;;24.00;99.90;;;;;;7316532;19;9469;-70
2023/09/09 08:28:42;;;;;;;;;;;24.20;99.90;;;;;;7312523;19;9249;-70
2023/09/09 08:31:11;;;;;;;;;;;24.30;99.90;;;;;;7318080;19;9285;-69
2023/09/09 08:33:40;;;;;;;;;;;24.30;99.90;;;;;;7314245;19;9645;-70
2023/09/09 08:36:12;;;;;;;;;;;24.30;99.90;;;;;;7317001;19;9241;-70
2023/09/09 08:38:42;;;;;;;;;;;24.40;99.90;;;;;;7315116;19;9004;-70
2023/09/09 08:41:18;;;;;;;;;;;24.50;99.20;;;;;;7316668;19;12282;-70
2023/09/09 08:43:56;;;;;;;;;;;24.60;99.10;;;;;;7313241;19;9559;-70
2023/09/09 08:46:25;;;;;;;;;;;24.60;99.20;;;;;;7315096;19;9248;-70
2023/09/09 08:48:55;;;;;;;;;;;24.60;98.80;;;;;;7313887;19;9131;-70
2023/09/09 08:51:55;;;;;;;;;;;24.70;99.90;;;;;;7310515;19;9702;-70
2023/09/09 08:54:25;;;;;;;;;;;24.70;99.90;;;;;;7315718;19;9253;-70
2023/09/09 08:56:55;;;;;;;;;;;24.80;98.80;;;;;;7313865;19;9468;-70
2023/09/09 08:59:24;;;;;;;;;;;24.80;99.40;;;;;;7315094;19;10901;-70
2023/09/09 09:01:54;;;;;;;;;;;24.90;98.30;;;;;;7313575;19;10313;-70
2023/09/09 09:04:24;;;;;;;;;;;25.00;99.90;;;;;;7314424;19;9254;-69
2023/09/09 09:06:58;;;;;;;;;;;25.10;97.40;;;;;;7313064;19;9082;-70
2023/09/09 09:09:28;;;;;;;;;;;25.20;96.90;;;;;;7314174;19;8945;-70
2023/09/09 09:12:01;;;;;;;;;;;25.20;96.30;;;;;;7313270;19;10975;-70
2023/09/09 09:14:30;;;;;;;;;;;25.20;99.20;;;;;;7314441;19;9463;-70
2023/09/09 09:16:59;;;;;;;;;;;25.30;98.70;;;;;;7313479;19;10852;-70
2023/09/09 09:19:48;;;;;;;;;;;25.30;96.90;;;;;;7313745;19;9480;-70
2023/09/09 09:22:20;;;;;;;;;;;25.40;98.00;;;;;;7313843;19;9170;-70
2023/09/09 09:25:11;;;;;;;;;;;25.50;97.90;;;;;;7311024;19;9236;-70
2023/09/09 09:27:43;;;;;;;;;;;25.60;96.60;;;;;;7314342;19;9273;-70
2023/09/09 09:30:13;;;;;;;;;;;25.60;97.50;;;;;;7314656;19;9784;-70
2023/09/09 09:32:44;;;;;;;;;;;25.70;97.80;;;;;;7315347;19;9297;-70
2023/09/09 09:35:25;;;;;;;;;;;25.70;97.50;;;;;;7311830;19;10055;-70
2023/09/09 09:37:59;;;;;;;;;;;25.80;96.80;;;;;;7315674;19;10623;-70
2023/09/09 09:40:30;;;;;;;;;;;25.90;95.30;;;;;;7313653;19;11334;-70
2023/09/09 09:43:00;;;;;;;;;;;25.90;94.50;;;;;;7314346;19;9285;-70
2023/09/09 09:45:49;;;;;;;;;;;25.90;94.90;;;;;;7312408;19;9186;-70
2023/09/09 09:48:28;;;;;;;;;;;26.00;95.10;;;;;;7311754;19;9278;-70
2023/09/09 09:50:57;;;;;;;;;;;26.00;95.30;;;;;;7314470;19;9502;-70
2023/09/09 09:53:29;;;;;;;;;;;26.10;93.60;;;;;;7311374;19;9445;-70
2023/09/09 09:55:59;;;;;;;;;;;26.10;94.00;;;;;;7313909;19;9313;-69
2023/09/09 09:58:31;;;;;;;;;;;26.10;93.00;;;;;;7311659;19;10604;-70
2023/09/09 10:01:03;;;;;;;;;;;26.00;94.60;;;;;;7313802;19;9242;-70
2023/09/09 10:03:58;;;;;;;;;;;26.20;94.70;;;;;;7313080;19;9501;-70
2023/09/09 10:06:29;;;;;;;;;;;26.30;93.70;;;;;;7311344;19;9498;-70
2023/09/09 10:09:13;;;;;;;;;;;26.30;92.90;;;;;;7315465;19;9634;-67
2023/09/09 10:11:52;;;;;;;;;;;26.40;93.60;;;;;;7312175;19;9300;-67
2023/09/09 10:14:27;;;;;;;;;;;26.40;93.30;;;;;;7311721;19;9712;-67
2023/09/09 10:16:57;;;;;;;;;;;26.50;92.60;;;;;;7314146;19;9013;-68
2023/09/09 10:19:27;;;;;;;;;;;26.50;94.30;;;;;;7311635;19;10204;-67
2023/09/09 10:21:58;;;;;;;;;;;26.60;92.80;;;;;;7318138;19;9460;-68
2023/09/09 10:24:32;;;;;;;;;;;26.70;91.90;;;;;;7319093;19;10171;-67
2023/09/09 10:27:23;;;;;;;;;;;26.70;91.60;;;;;;7318248;19;10160;-67
2023/09/09 10:29:53;;;;;;;;;;;26.80;92.30;;;;;;7320094;19;10339;-68
2023/09/09 10:32:24;;;;;;;;;;;26.80;92.00;;;;;;7320372;19;9302;-68
2023/09/09 10:34:56;;;;;;;;;;;26.80;91.50;;;;;;7318715;19;9261;-68
2023/09/09 10:37:26;;;;;;;;;;;26.80;92.20;;;;;;7318991;19;9261;-68
2023/09/09 10:39:58;;;;;;;;;;;26.90;93.20;;;;;;7319253;19;9524;-68
2023/09/09 10:42:29;;;;;;;;;;;27.00;92.70;;;;;;7320322;19;8952;-68
2023/09/09 10:45:32;;;;;;;;;;;27.00;90.80;;;;;;7316541;19;9218;-68
2023/09/09 10:48:23;;;;;;;;;;;27.10;91.90;;;;;;7317042;19;9188;-68
2023/09/09 10:51:18;;;;;;;;;;;27.10;91.20;;;;;;7317074;19;9274;-67
2023/09/09 10:53:47;;;;;;;;;;;27.10;90.40;;;;;;7317581;19;11288;-68
2023/09/09 10:56:26;;;;;;;;;;;27.10;89.90;;;;;;7318800;19;9246;-68
2023/09/09 10:58:55;;;;;;;;;;;27.00;89.90;;;;;;7317013;19;9277;-68
2023/09/09 11:01:29;;;;;;;;;;;26.90;90.70;;;;;;7318562;19;9483;-68
2023/09/09 11:04:00;;;;;;;;;;;26.90;90.70;;;;;;7315414;19;10366;-68
2023/09/09 11:06:31;;;;;;;;;;;26.90;90.40;;;;;;7318656;19;9611;-68
2023/09/09 11:09:20;;;;;;;;;;;26.80;90.50;;;;;;7318262;19;11612;-67
2023/09/09 11:11:49;;;;;;;;;;;26.70;91.10;;;;;;7318073;19;9209;-68
2023/09/09 11:14:22;;;;;;;;;;;26.70;91.00;;;;;;7317409;19;9306;-68
2023/09/09 11:16:57;;;;;;;;;;;26.60;91.40;;;;;;7317999;19;9288;-68
2023/09/09 11:19:46;;;;;;;;;;;26.60;91.60;;;;;;7317013;19;9239;-68
2023/09/09 11:22:17;;;;;;;;;;;26.70;91.90;;;;;;7317685;19;9277;-68
2023/09/09 11:24:47;;;;;;;;;;;26.70;91.80;;;;;;7318683;19;9182;-68
2023/09/09 11:27:17;;;;;;;;;;;26.80;91.40;;;;;;7315896;19;9261;-68
2023/09/09 11:29:52;;;;;;;;;;;26.80;91.10;;;;;;7320123;19;9174;-68
2023/09/09 11:32:32;;;;;;;;;;;26.90;91.20;;;;;;7316647;19;9989;-68
2023/09/09 11:35:01;;;;;;;;;;;26.90;90.90;;;;;;7316557;19;9299;-68
2023/09/09 11:37:30;;;;;;;;;;;27.00;90.80;;;;;;7320595;19;9463;-68
2023/09/09 11:39:59;;;;;;;;;;;26.90;90.80;;;;;;7317012;19;9265;-68
2023/09/09 11:42:29;;;;;;;;;;;26.90;90.80;;;;;;7317913;19;9726;-68
2023/09/09 11:44:58;;;;;;;;;;;26.90;90.80;;;;;;7317210;19;9431;-68
2023/09/09 11:47:29;;;;;;;;;;;26.90;91.60;;;;;;7317491;19;10167;-68
2023/09/09 11:49:58;;;;;;;;;;;26.90;91.00;;;;;;7315604;19;9221;-68
2023/09/09 11:52:28;;;;;;;;;;;26.80;91.20;;;;;;7316167;19;9226;-68
2023/09/09 11:54:57;;;;;;;;;;;27.10;92.40;;;;;;7317384;19;9277;-68
2023/09/09 11:57:26;;;;;;;;;;;27.10;90.60;;;;;;7315596;19;9549;-68
2023/09/09 11:59:57;;;;;;;;;;;27.00;90.90;;;;;;7318273;19;9230;-68
2023/09/09 12:02:49;;;;;;;;;;;27.00;91.40;;;;;;7314779;19;9635;-67
2023/09/09 12:05:18;;;;;;;;;;;26.90;91.30;;;;;;7315667;19;9325;-68
2023/09/09 12:07:49;;;;;;;;;;;26.90;91.30;;;;;;7318084;19;9279;-68
2023/09/09 12:10:18;;;;;;;;;;;26.80;91.40;;;;;;7316064;19;9233;-68
2023/09/09 12:13:08;;;;;;;;;;;26.80;91.90;;;;;;7315599;19;11988;-68
2023/09/09 12:15:38;;;;;;;;;;;26.90;91.40;;;;;;7312881;19;9506;-68
2023/09/09 12:18:15;;;;;;;;;;;26.90;91.70;;;;;;7316883;19;9166;-68
2023/09/09 12:21:03;;;;;;;;;;;26.70;92.30;;;;;;7315229;19;9295;-68
2023/09/09 12:23:33;;;;;;;;;;;26.60;92.30;;;;;;7315165;19;9262;-68
2023/09/09 12:26:12;;;;;;;;;;;26.60;92.80;;;;;;7316962;19;9278;-69
2023/09/09 12:28:42;;;;;;;;;;;26.80;92.70;;;;;;7314077;19;10428;-69
2023/09/09 12:31:11;;;;;;;;;;;26.90;91.90;;;;;;7318214;19;10790;-69
2023/09/09 12:33:45;;;;;;;;;;;27.00;91.90;;;;;;7313469;19;9222;-69
2023/09/09 12:36:19;;;;;;;;;;;26.80;92.10;;;;;;7316996;19;9679;-68
2023/09/09 12:39:12;;;;;;;;;;;26.70;92.60;;;;;;7316338;19;9298;-69
2023/09/09 12:41:41;;;;;;;;;;;26.70;92.60;;;;;;7314748;19;9197;-69
2023/09/09 12:44:11;;;;;;;;;;;26.90;92.40;;;;;;7313758;19;9273;-68
2023/09/09 12:46:40;;;;;;;;;;;26.80;92.10;;;;;;7313913;19;10268;-68
2023/09/09 12:49:12;;;;;;;;;;;26.80;92.20;;;;;;7316146;19;9226;-68
2023/09/09 12:51:41;;;;;;;;;;;26.90;92.60;;;;;;7312912;19;9297;-68
2023/09/09 12:54:10;;;;;;;;;;;27.10;93.80;;;;;;7316132;19;9441;-68
2023/09/09 12:56:38;;;;;;;;;;;27.10;92.10;;;;;;7314857;19;8989;-68
2023/09/09 12:59:07;;;;;;;;;;;27.10;92.00;;;;;;7315957;19;9412;-68
2023/09/09 13:01:36;;;;;;;;;;;27.10;92.80;;;;;;7315536;19;10327;-68
2023/09/09 13:04:28;;;;;;;;;;;27.10;92.30;;;;;;7314185;19;9533;-68
2023/09/09 13:06:57;;;;;;;;;;;27.00;92.70;;;;;;7313271;19;9283;-68
2023/09/09 13:09:46;;;;;;;;;;;27.00;92.50;;;;;;7312711;19;9242;-68
2023/09/09 13:12:15;;;;;;;;;;;27.30;93.20;;;;;;7315228;19;9195;-68
2023/09/09 13:14:44;;;;;;;;;;;27.60;92.50;;;;;;7314998;19;10393;-69
2023/09/09 13:17:13;;;;;;;;;;;27.80;92.10;;;;;;7314156;19;9300;-69
2023/09/09 13:19:45;;;;;;;;;;;27.90;91.10;;;;;;7314739;19;9321;-69
2023/09/09 13:22:13;;;;;;;;;;;27.90;91.40;;;;;;7313400;19;9676;-68
2023/09/09 13:24:42;;;;;;;;;;;27.80;90.80;;;;;;7315225;19;9149;-70
2023/09/09 13:27:32;;;;;;;;;;;27.90;91.10;;;;;;7312795;19;10364;-69
2023/09/09 13:30:01;;;;;;;;;;;27.70;91.00;;;;;;7314684;19;9258;-69
2023/09/09 13:32:30;;;;;;;;;;;27.60;90.90;;;;;;7314345;19;9296;-70
2023/09/09 13:35:02;;;;;;;;;;;27.50;90.80;;;;;;7313314;19;9269;-68
2023/09/09 13:37:51;;;;;;;;;;;27.30;91.20;;;;;;7314817;19;9490;-68
2023/09/09 13:40:20;;;;;;;;;;;27.10;92.70;;;;;;7312630;19;9182;-69
2023/09/09 13:42:49;;;;;;;;;;;26.90;94.10;;;;;;7314583;19;10769;-68
2023/09/09 13:45:19;;;;;;;;;;;26.80;94.30;;;;;;7311525;19;9443;-68
2023/09/09 13:47:48;;;;;;;;;;;26.70;93.90;;;;;;7314401;19;10687;-69
2023/09/09 13:50:20;;;;;;;;;;;26.90;93.80;;;;;;7311055;19;9123;-69
2023/09/09 13:52:48;;;;;;;;;;;27.10;94.60;;;;;;7313680;19;9176;-69
2023/09/09 13:55:18;;;;;;;;;;;27.20;93.70;;;;;;7312666;19;9266;-69
2023/09/09 13:57:47;;;;;;;;;;;27.30;93.60;;;;;;7320492;19;10294;-69
2023/09/09 14:00:16;;;;;;;;;;;27.40;93.60;;;;;;7319128;19;10473;-69
2023/09/09 14:03:06;;;;;;;;;;;27.30;92.60;;;;;;7318776;19;9239;-69
2023/09/09 14:05:37;;;;;;;;;;;27.20;93.00;;;;;;7319000;19;9509;-68
2023/09/09 14:08:26;;;;;;;;;;;27.10;93.70;;;;;;7317760;19;9332;-69
2023/09/09 14:11:15;;;;;;;;;;;27.00;93.90;;;;;;7316513;19;9452;-69
2023/09/09 14:13:44;;;;;;;;;;;27.00;93.60;;;;;;7320462;19;9639;-68
2023/09/09 14:16:13;;;;;;;;;;;27.10;93.50;;;;;;7319756;19;9515;-68
2023/09/09 14:18:42;;;;;;;;;;;26.80;92.40;;;;;;7320010;19;9304;-69
2023/09/09 14:21:14;;;;;;;;;;;26.80;92.50;;;;;;7319393;19;9342;-68
2023/09/09 14:23:43;;;;;;;;;;;26.90;93.10;;;;;;7318878;19;9350;-68
2023/09/09 14:26:32;;;;;;;;;;;27.00;93.10;;;;;;7316028;19;10373;-69
2023/09/09 14:29:01;;;;;;;;;;;27.10;92.00;;;;;;7319503;19;10379;-69
2023/09/09 14:31:30;;;;;;;;;;;27.00;92.10;;;;;;7319454;19;9286;-68
2023/09/09 14:33:59;;;;;;;;;;;26.90;92.10;;;;;;7319828;19;9406;-69
2023/09/09 14:36:51;;;;;;;;;;;27.00;92.60;;;;;;7316527;19;10316;-68
2023/09/09 14:39:20;;;;;;;;;;;27.00;92.10;;;;;;7321125;19;9305;-68
2023/09/09 14:41:49;;;;;;;;;;;27.00;92.00;;;;;;7316938;19;9247;-68
2023/09/09 14:44:18;;;;;;;;;;;26.80;92.00;;;;;;7319449;19;10595;-69
2023/09/09 14:46:48;;;;;;;;;;;26.80;92.00;;;;;;7316730;19;9277;-69
2023/09/09 14:49:17;;;;;;;;;;;26.80;92.50;;;;;;7319929;19;9460;-69
2023/09/09 14:51:46;;;;;;;;;;;26.80;92.50;;;;;;7316503;19;9242;-69
2023/09/09 14:54:18;;;;;;;;;;;26.70;92.70;;;;;;7319740;19;8945;-69
2023/09/09 14:56:47;;;;;;;;;;;26.70;92.60;;;;;;7316851;19;9451;-69
2023/09/09 14:59:15;;;;;;;;;;;26.70;92.10;;;;;;7319019;19;9234;-69
2023/09/09 15:01:44;;;;;;;;;;;26.80;92.20;;;;;;7316944;19;9261;-69
2023/09/09 15:04:13;;;;;;;;;;;26.80;92.30;;;;;;7318716;19;9587;-69